sensor_id;sensor_type;location;lat;lon;timestamp;P1;durP1;ratioP1;P2;durP2;ratioP2
47635;SDS011;33364;50.766;15.338;2022-11-15T00:00:49;16.65;;;10.68;;
47635;SDS011;33364;50.766;15.338;2022-11-15T00:03:16;23.17;;;11.82;;
47635;SDS011;33364;50.766;15.338;2022-11-15T00:05:43;20.83;;;11.52;;
47635;SDS011;33364;50.766;15.338;2022-11-15T00:08:09;19.25;;;11.52;;
47635;SDS011;33364;50.766;15.338;2022-11-15T00:10:35;20.05;;;12.00;;
47635;SDS011;33364;50.766;15.338;2022-11-15T00:13:06;20.25;;;11.07;;
47635;SDS011;33364;50.766;15.338;2022-11-15T00:15:34;21.40;;;12.20;;
47635;SDS011;33364;50.766;15.338;2022-11-15T00:18:03;18.98;;;10.57;;
47635;SDS011;33364;50.766;15.338;2022-11-15T00:20:30;18.95;;;10.57;;
47635;SDS011;33364;50.766;15.338;2022-11-15T00:22:56;17.10;;;10.07;;
47635;SDS011;33364;50.766;15.338;2022-11-15T00:25:22;17.38;;;9.30;;
47635;SDS011;33364;50.766;15.338;2022-11-15T00:27:47;20.63;;;10.90;;
47635;SDS011;33364;50.766;15.338;2022-11-15T00:30:13;18.35;;;10.80;;
47635;SDS011;33364;50.766;15.338;2022-11-15T00:32:39;14.05;;;8.15;;
47635;SDS011;33364;50.766;15.338;2022-11-15T00:35:04;14.65;;;9.13;;
47635;SDS011;33364;50.766;15.338;2022-11-15T00:37:30;15.13;;;9.65;;
47635;SDS011;33364;50.766;15.338;2022-11-15T00:39:56;13.20;;;8.00;;
47635;SDS011;33364;50.766;15.338;2022-11-15T00:42:21;20.05;;;10.43;;
47635;SDS011;33364;50.766;15.338;2022-11-15T00:44:47;15.68;;;9.30;;
47635;SDS011;33364;50.766;15.338;2022-11-15T00:47:13;17.17;;;11.10;;
47635;SDS011;33364;50.766;15.338;2022-11-15T00:49:38;16.45;;;10.38;;
47635;SDS011;33364;50.766;15.338;2022-11-15T00:52:04;20.98;;;10.95;;
47635;SDS011;33364;50.766;15.338;2022-11-15T00:54:29;16.20;;;10.00;;
47635;SDS011;33364;50.766;15.338;2022-11-15T00:56:55;17.95;;;10.93;;
47635;SDS011;33364;50.766;15.338;2022-11-15T00:59:21;17.38;;;10.60;;
47635;SDS011;33364;50.766;15.338;2022-11-15T01:01:46;17.30;;;9.77;;
47635;SDS011;33364;50.766;15.338;2022-11-15T01:04:12;17.67;;;9.43;;
47635;SDS011;33364;50.766;15.338;2022-11-15T01:06:38;18.58;;;9.68;;
47635;SDS011;33364;50.766;15.338;2022-11-15T01:09:03;18.27;;;9.63;;
47635;SDS011;33364;50.766;15.338;2022-11-15T01:11:29;16.75;;;9.70;;
47635;SDS011;33364;50.766;15.338;2022-11-15T01:13:55;20.10;;;11.00;;
47635;SDS011;33364;50.766;15.338;2022-11-15T01:16:20;16.27;;;10.05;;
47635;SDS011;33364;50.766;15.338;2022-11-15T01:18:46;17.67;;;9.98;;
47635;SDS011;33364;50.766;15.338;2022-11-15T01:21:13;16.65;;;10.27;;
47635;SDS011;33364;50.766;15.338;2022-11-15T01:23:41;15.77;;;9.60;;
47635;SDS011;33364;50.766;15.338;2022-11-15T01:26:07;17.10;;;9.77;;
47635;SDS011;33364;50.766;15.338;2022-11-15T01:28:36;17.33;;;9.18;;
47635;SDS011;33364;50.766;15.338;2022-11-15T01:31:05;16.45;;;10.35;;
47635;SDS011;33364;50.766;15.338;2022-11-15T01:33:35;18.10;;;9.68;;
47635;SDS011;33364;50.766;15.338;2022-11-15T01:36:05;17.70;;;9.27;;
47635;SDS011;33364;50.766;15.338;2022-11-15T01:38:32;14.40;;;8.68;;
47635;SDS011;33364;50.766;15.338;2022-11-15T01:40:58;14.50;;;8.93;;
47635;SDS011;33364;50.766;15.338;2022-11-15T01:43:25;15.95;;;9.07;;
47635;SDS011;33364;50.766;15.338;2022-11-15T01:45:55;13.68;;;8.45;;
47635;SDS011;33364;50.766;15.338;2022-11-15T01:48:26;14.85;;;9.15;;
47635;SDS011;33364;50.766;15.338;2022-11-15T01:50:58;13.55;;;8.25;;
47635;SDS011;33364;50.766;15.338;2022-11-15T01:53:26;17.70;;;9.48;;
47635;SDS011;33364;50.766;15.338;2022-11-15T01:55:53;14.15;;;7.47;;
47635;SDS011;33364;50.766;15.338;2022-11-15T01:58:19;13.25;;;8.23;;
47635;SDS011;33364;50.766;15.338;2022-11-15T02:00:45;12.60;;;7.38;;
47635;SDS011;33364;50.766;15.338;2022-11-15T02:03:13;13.07;;;8.50;;
47635;SDS011;33364;50.766;15.338;2022-11-15T02:05:39;17.08;;;8.98;;
47635;SDS011;33364;50.766;15.338;2022-11-15T02:08:06;18.35;;;9.07;;
47635;SDS011;33364;50.766;15.338;2022-11-15T02:10:33;15.05;;;8.90;;
47635;SDS011;33364;50.766;15.338;2022-11-15T02:12:59;14.48;;;8.98;;
47635;SDS011;33364;50.766;15.338;2022-11-15T02:15:27;13.82;;;8.60;;
47635;SDS011;33364;50.766;15.338;2022-11-15T02:18:09;8.90;;;5.53;;
47635;SDS011;33364;50.766;15.338;2022-11-15T02:20:46;12.65;;;7.80;;
47635;SDS011;33364;50.766;15.338;2022-11-15T02:23:39;13.52;;;8.05;;
47635;SDS011;33364;50.766;15.338;2022-11-15T02:31:44;13.05;;;7.57;;
47635;SDS011;33364;50.766;15.338;2022-11-15T02:42:09;14.48;;;9.68;;
47635;SDS011;33364;50.766;15.338;2022-11-15T02:44:58;13.95;;;7.55;;
47635;SDS011;33364;50.766;15.338;2022-11-15T02:47:32;13.63;;;8.23;;
47635;SDS011;33364;50.766;15.338;2022-11-15T02:50:08;16.77;;;8.98;;
47635;SDS011;33364;50.766;15.338;2022-11-15T02:52:36;13.15;;;7.70;;
47635;SDS011;33364;50.766;15.338;2022-11-15T02:55:02;13.15;;;7.43;;
47635;SDS011;33364;50.766;15.338;2022-11-15T03:00:06;12.35;;;7.13;;
47635;SDS011;33364;50.766;15.338;2022-11-15T03:11:19;14.27;;;7.82;;
47635;SDS011;33364;50.766;15.338;2022-11-15T03:13:17;13.40;;;7.78;;
47635;SDS011;33364;50.766;15.338;2022-11-15T03:18:20;12.82;;;7.72;;
47635;SDS011;33364;50.766;15.338;2022-11-15T03:20:49;10.10;;;6.30;;
47635;SDS011;33364;50.766;15.338;2022-11-15T03:23:16;12.13;;;8.02;;
47635;SDS011;33364;50.766;15.338;2022-11-15T03:25:46;14.13;;;8.50;;
47635;SDS011;33364;50.766;15.338;2022-11-15T03:28:16;14.15;;;8.40;;
47635;SDS011;33364;50.766;15.338;2022-11-15T03:30:47;11.88;;;7.50;;
47635;SDS011;33364;50.766;15.338;2022-11-15T03:33:15;12.40;;;7.35;;
47635;SDS011;33364;50.766;15.338;2022-11-15T03:35:42;13.55;;;7.22;;
47635;SDS011;33364;50.766;15.338;2022-11-15T03:38:23;15.32;;;8.77;;
47635;SDS011;33364;50.766;15.338;2022-11-15T03:43:52;16.50;;;8.80;;
47635;SDS011;33364;50.766;15.338;2022-11-15T03:46:24;15.38;;;9.57;;
47635;SDS011;33364;50.766;15.338;2022-11-15T03:48:59;16.02;;;9.77;;
47635;SDS011;33364;50.766;15.338;2022-11-15T03:51:33;15.07;;;8.02;;
47635;SDS011;33364;50.766;15.338;2022-11-15T03:53:59;12.35;;;8.40;;
47635;SDS011;33364;50.766;15.338;2022-11-15T03:56:27;9.02;;;6.07;;
47635;SDS011;33364;50.766;15.338;2022-11-15T03:58:53;9.93;;;5.60;;
47635;SDS011;33364;50.766;15.338;2022-11-15T04:01:18;12.70;;;6.32;;
47635;SDS011;33364;50.766;15.338;2022-11-15T04:03:44;12.13;;;7.40;;
47635;SDS011;33364;50.766;15.338;2022-11-15T04:06:09;13.20;;;7.82;;
47635;SDS011;33364;50.766;15.338;2022-11-15T04:08:35;15.77;;;8.85;;
47635;SDS011;33364;50.766;15.338;2022-11-15T04:11:01;21.52;;;11.10;;
47635;SDS011;33364;50.766;15.338;2022-11-15T04:13:26;22.00;;;12.00;;
47635;SDS011;33364;50.766;15.338;2022-11-15T04:15:52;23.80;;;11.88;;
47635;SDS011;33364;50.766;15.338;2022-11-15T04:18:18;25.20;;;12.90;;
47635;SDS011;33364;50.766;15.338;2022-11-15T04:20:43;27.75;;;16.25;;
47635;SDS011;33364;50.766;15.338;2022-11-15T04:23:27;19.17;;;10.70;;
47635;SDS011;33364;50.766;15.338;2022-11-15T04:26:15;13.77;;;6.88;;
47635;SDS011;33364;50.766;15.338;2022-11-15T04:28:43;10.40;;;6.70;;
47635;SDS011;33364;50.766;15.338;2022-11-15T04:31:27;9.65;;;6.00;;
47635;SDS011;33364;50.766;15.338;2022-11-15T04:33:53;9.98;;;6.20;;
47635;SDS011;33364;50.766;15.338;2022-11-15T04:36:19;11.50;;;6.70;;
47635;SDS011;33364;50.766;15.338;2022-11-15T04:39:04;10.77;;;6.15;;
47635;SDS011;33364;50.766;15.338;2022-11-15T04:41:30;9.40;;;5.65;;
47635;SDS011;33364;50.766;15.338;2022-11-15T04:43:56;10.23;;;6.55;;
47635;SDS011;33364;50.766;15.338;2022-11-15T04:46:22;7.43;;;4.85;;
47635;SDS011;33364;50.766;15.338;2022-11-15T04:48:49;13.80;;;5.13;;
47635;SDS011;33364;50.766;15.338;2022-11-15T04:51:15;10.30;;;4.82;;
47635;SDS011;33364;50.766;15.338;2022-11-15T04:53:41;13.68;;;5.57;;
47635;SDS011;33364;50.766;15.338;2022-11-15T04:56:06;11.23;;;6.10;;
47635;SDS011;33364;50.766;15.338;2022-11-15T04:58:32;8.60;;;4.93;;
47635;SDS011;33364;50.766;15.338;2022-11-15T05:00:57;10.30;;;5.55;;
47635;SDS011;33364;50.766;15.338;2022-11-15T05:03:23;7.80;;;4.93;;
47635;SDS011;33364;50.766;15.338;2022-11-15T05:06:07;9.02;;;4.97;;
47635;SDS011;33364;50.766;15.338;2022-11-15T05:08:33;8.60;;;5.10;;
47635;SDS011;33364;50.766;15.338;2022-11-15T05:10:58;8.45;;;4.95;;
47635;SDS011;33364;50.766;15.338;2022-11-15T05:13:25;10.70;;;4.90;;
47635;SDS011;33364;50.766;15.338;2022-11-15T05:15:50;10.52;;;6.40;;
47635;SDS011;33364;50.766;15.338;2022-11-15T05:18:16;10.10;;;5.95;;
47635;SDS011;33364;50.766;15.338;2022-11-15T05:20:41;8.02;;;4.93;;
47635;SDS011;33364;50.766;15.338;2022-11-15T05:23:07;12.73;;;5.85;;
47635;SDS011;33364;50.766;15.338;2022-11-15T05:25:32;9.73;;;5.90;;
47635;SDS011;33364;50.766;15.338;2022-11-15T05:27:58;10.98;;;5.80;;
47635;SDS011;33364;50.766;15.338;2022-11-15T05:30:24;13.48;;;8.68;;
47635;SDS011;33364;50.766;15.338;2022-11-15T05:32:50;9.23;;;5.95;;
47635;SDS011;33364;50.766;15.338;2022-11-15T05:38:22;11.65;;;8.45;;
47635;SDS011;33364;50.766;15.338;2022-11-15T05:40:48;10.43;;;6.57;;
47635;SDS011;33364;50.766;15.338;2022-11-15T05:43:14;74.15;;;44.83;;
47635;SDS011;33364;50.766;15.338;2022-11-15T05:45:40;16.65;;;8.30;;
47635;SDS011;33364;50.766;15.338;2022-11-15T05:48:06;9.60;;;5.60;;
47635;SDS011;33364;50.766;15.338;2022-11-15T05:50:34;9.18;;;5.65;;
47635;SDS011;33364;50.766;15.338;2022-11-15T05:53:04;9.73;;;5.55;;
47635;SDS011;33364;50.766;15.338;2022-11-15T05:55:30;8.45;;;4.88;;
47635;SDS011;33364;50.766;15.338;2022-11-15T05:57:57;11.50;;;7.43;;
47635;SDS011;33364;50.766;15.338;2022-11-15T06:00:22;15.52;;;9.32;;
47635;SDS011;33364;50.766;15.338;2022-11-15T06:02:48;10.75;;;7.88;;
47635;SDS011;33364;50.766;15.338;2022-11-15T06:05:14;11.70;;;7.90;;
47635;SDS011;33364;50.766;15.338;2022-11-15T06:07:40;11.32;;;7.20;;
47635;SDS011;33364;50.766;15.338;2022-11-15T06:10:05;15.93;;;9.25;;
47635;SDS011;33364;50.766;15.338;2022-11-15T06:12:32;11.18;;;6.93;;
47635;SDS011;33364;50.766;15.338;2022-11-15T06:14:57;11.27;;;6.93;;
47635;SDS011;33364;50.766;15.338;2022-11-15T06:17:23;39.80;;;21.42;;
47635;SDS011;33364;50.766;15.338;2022-11-15T06:19:48;16.77;;;9.18;;
47635;SDS011;33364;50.766;15.338;2022-11-15T06:22:14;15.50;;;9.38;;
47635;SDS011;33364;50.766;15.338;2022-11-15T06:24:40;10.70;;;6.18;;
47635;SDS011;33364;50.766;15.338;2022-11-15T06:27:05;8.88;;;5.57;;
47635;SDS011;33364;50.766;15.338;2022-11-15T06:29:31;9.52;;;5.43;;
47635;SDS011;33364;50.766;15.338;2022-11-15T06:31:57;13.40;;;6.47;;
47635;SDS011;33364;50.766;15.338;2022-11-15T06:34:22;11.40;;;6.03;;
47635;SDS011;33364;50.766;15.338;2022-11-15T06:36:48;9.02;;;5.55;;
47635;SDS011;33364;50.766;15.338;2022-11-15T06:39:13;12.20;;;7.90;;
47635;SDS011;33364;50.766;15.338;2022-11-15T06:41:40;12.55;;;7.00;;
47635;SDS011;33364;50.766;15.338;2022-11-15T06:44:05;12.10;;;6.28;;
47635;SDS011;33364;50.766;15.338;2022-11-15T06:46:31;93.50;;;50.05;;
47635;SDS011;33364;50.766;15.338;2022-11-15T06:48:56;118.85;;;68.80;;
47635;SDS011;33364;50.766;15.338;2022-11-15T06:51:22;23.00;;;12.90;;
47635;SDS011;33364;50.766;15.338;2022-11-15T06:53:48;14.27;;;8.80;;
47635;SDS011;33364;50.766;15.338;2022-11-15T06:56:13;14.90;;;9.43;;
47635;SDS011;33364;50.766;15.338;2022-11-15T06:58:39;14.13;;;7.13;;
47635;SDS011;33364;50.766;15.338;2022-11-15T07:01:08;24.45;;;12.55;;
47635;SDS011;33364;50.766;15.338;2022-11-15T07:03:36;14.77;;;8.13;;
47635;SDS011;33364;50.766;15.338;2022-11-15T07:06:04;17.92;;;10.13;;
47635;SDS011;33364;50.766;15.338;2022-11-15T07:08:30;15.23;;;8.45;;
47635;SDS011;33364;50.766;15.338;2022-11-15T07:11:03;17.77;;;9.35;;
47635;SDS011;33364;50.766;15.338;2022-11-15T07:13:30;17.63;;;8.68;;
47635;SDS011;33364;50.766;15.338;2022-11-15T07:16:01;48.47;;;21.02;;
47635;SDS011;33364;50.766;15.338;2022-11-15T07:18:27;38.72;;;17.75;;
47635;SDS011;33364;50.766;15.338;2022-11-15T07:20:53;16.25;;;9.15;;
47635;SDS011;33364;50.766;15.338;2022-11-15T07:23:19;15.05;;;9.55;;
47635;SDS011;33364;50.766;15.338;2022-11-15T07:25:45;15.75;;;8.95;;
47635;SDS011;33364;50.766;15.338;2022-11-15T07:28:10;12.98;;;8.10;;
47635;SDS011;33364;50.766;15.338;2022-11-15T07:30:36;21.65;;;12.07;;
47635;SDS011;33364;50.766;15.338;2022-11-15T07:33:01;23.10;;;13.48;;
47635;SDS011;33364;50.766;15.338;2022-11-15T07:35:28;19.77;;;11.48;;
47635;SDS011;33364;50.766;15.338;2022-11-15T07:37:58;23.58;;;16.35;;
47635;SDS011;33364;50.766;15.338;2022-11-15T07:40:26;26.80;;;13.82;;
47635;SDS011;33364;50.766;15.338;2022-11-15T07:43:03;15.15;;;8.90;;
47635;SDS011;33364;50.766;15.338;2022-11-15T07:45:30;21.02;;;10.75;;
47635;SDS011;33364;50.766;15.338;2022-11-15T07:47:56;15.07;;;8.13;;
47635;SDS011;33364;50.766;15.338;2022-11-15T07:50:23;14.50;;;8.38;;
47635;SDS011;33364;50.766;15.338;2022-11-15T07:52:56;14.63;;;9.07;;
47635;SDS011;33364;50.766;15.338;2022-11-15T07:55:23;19.17;;;9.43;;
47635;SDS011;33364;50.766;15.338;2022-11-15T07:57:49;15.55;;;10.38;;
47635;SDS011;33364;50.766;15.338;2022-11-15T08:00:15;17.38;;;12.07;;
47635;SDS011;33364;50.766;15.338;2022-11-15T08:02:41;20.00;;;12.50;;
47635;SDS011;33364;50.766;15.338;2022-11-15T08:05:07;23.08;;;12.35;;
47635;SDS011;33364;50.766;15.338;2022-11-15T08:07:33;22.13;;;12.77;;
47635;SDS011;33364;50.766;15.338;2022-11-15T08:09:59;22.80;;;11.82;;
47635;SDS011;33364;50.766;15.338;2022-11-15T08:12:28;19.67;;;11.35;;
47635;SDS011;33364;50.766;15.338;2022-11-15T08:14:55;18.38;;;11.48;;
47635;SDS011;33364;50.766;15.338;2022-11-15T08:17:23;19.38;;;11.93;;
47635;SDS011;33364;50.766;15.338;2022-11-15T08:19:50;20.77;;;12.32;;
47635;SDS011;33364;50.766;15.338;2022-11-15T08:22:16;21.25;;;11.70;;
47635;SDS011;33364;50.766;15.338;2022-11-15T08:24:42;17.50;;;10.60;;
47635;SDS011;33364;50.766;15.338;2022-11-15T08:27:07;31.60;;;13.95;;
47635;SDS011;33364;50.766;15.338;2022-11-15T08:29:41;14.32;;;10.43;;
47635;SDS011;33364;50.766;15.338;2022-11-15T08:32:08;14.18;;;9.13;;
47635;SDS011;33364;50.766;15.338;2022-11-15T08:34:34;15.25;;;10.38;;
47635;SDS011;33364;50.766;15.338;2022-11-15T08:37:00;12.65;;;8.57;;
47635;SDS011;33364;50.766;15.338;2022-11-15T08:39:25;11.30;;;7.80;;
47635;SDS011;33364;50.766;15.338;2022-11-15T08:41:51;12.18;;;7.47;;
47635;SDS011;33364;50.766;15.338;2022-11-15T08:44:17;13.23;;;7.80;;
47635;SDS011;33364;50.766;15.338;2022-11-15T08:46:44;14.35;;;8.73;;
47635;SDS011;33364;50.766;15.338;2022-11-15T08:49:11;15.20;;;8.70;;
47635;SDS011;33364;50.766;15.338;2022-11-15T08:51:36;14.60;;;8.48;;
47635;SDS011;33364;50.766;15.338;2022-11-15T08:54:02;14.85;;;8.75;;
47635;SDS011;33364;50.766;15.338;2022-11-15T08:56:27;16.10;;;9.20;;
47635;SDS011;33364;50.766;15.338;2022-11-15T08:58:53;17.10;;;10.75;;
47635;SDS011;33364;50.766;15.338;2022-11-15T09:01:20;25.77;;;13.93;;
47635;SDS011;33364;50.766;15.338;2022-11-15T09:03:46;26.73;;;14.50;;
47635;SDS011;33364;50.766;15.338;2022-11-15T09:06:12;24.13;;;13.95;;
47635;SDS011;33364;50.766;15.338;2022-11-15T09:08:38;21.20;;;12.70;;
47635;SDS011;33364;50.766;15.338;2022-11-15T09:11:05;20.90;;;11.30;;
47635;SDS011;33364;50.766;15.338;2022-11-15T09:13:32;20.35;;;13.73;;
47635;SDS011;33364;50.766;15.338;2022-11-15T09:15:58;22.35;;;13.70;;
47635;SDS011;33364;50.766;15.338;2022-11-15T09:18:24;20.45;;;13.70;;
47635;SDS011;33364;50.766;15.338;2022-11-15T09:20:50;21.02;;;13.95;;
47635;SDS011;33364;50.766;15.338;2022-11-15T09:23:16;22.35;;;13.20;;
47635;SDS011;33364;50.766;15.338;2022-11-15T09:25:42;20.42;;;12.73;;
47635;SDS011;33364;50.766;15.338;2022-11-15T09:28:08;23.63;;;12.38;;
47635;SDS011;33364;50.766;15.338;2022-11-15T09:30:33;18.80;;;12.13;;
47635;SDS011;33364;50.766;15.338;2022-11-15T09:33:05;18.83;;;11.98;;
47635;SDS011;33364;50.766;15.338;2022-11-15T09:35:35;19.15;;;12.27;;
47635;SDS011;33364;50.766;15.338;2022-11-15T09:38:01;18.50;;;11.57;;
47635;SDS011;33364;50.766;15.338;2022-11-15T09:40:27;22.92;;;12.48;;
47635;SDS011;33364;50.766;15.338;2022-11-15T09:43:05;18.15;;;12.07;;
47635;SDS011;33364;50.766;15.338;2022-11-15T09:51:29;20.92;;;12.73;;
47635;SDS011;33364;50.766;15.338;2022-11-15T09:56:35;22.48;;;14.02;;
47635;SDS011;33364;50.766;15.338;2022-11-15T10:04:53;23.15;;;14.68;;
47635;SDS011;33364;50.766;15.338;2022-11-15T10:07:21;22.25;;;14.48;;
47635;SDS011;33364;50.766;15.338;2022-11-15T10:09:54;25.58;;;15.45;;
47635;SDS011;33364;50.766;15.338;2022-11-15T10:12:24;28.75;;;18.15;;
47635;SDS011;33364;50.766;15.338;2022-11-15T10:14:58;31.42;;;18.17;;
47635;SDS011;33364;50.766;15.338;2022-11-15T10:17:36;27.05;;;16.70;;
47635;SDS011;33364;50.766;15.338;2022-11-15T10:22:47;30.33;;;18.10;;
47635;SDS011;33364;50.766;15.338;2022-11-15T10:25:20;25.58;;;16.15;;
47635;SDS011;33364;50.766;15.338;2022-11-15T10:30:49;29.27;;;17.80;;
47635;SDS011;33364;50.766;15.338;2022-11-15T10:33:19;30.33;;;18.75;;
47635;SDS011;33364;50.766;15.338;2022-11-15T10:35:46;28.55;;;16.95;;
47635;SDS011;33364;50.766;15.338;2022-11-15T10:38:12;29.13;;;17.58;;
47635;SDS011;33364;50.766;15.338;2022-11-15T10:40:39;26.20;;;17.30;;
47635;SDS011;33364;50.766;15.338;2022-11-15T10:45:51;28.90;;;18.92;;
47635;SDS011;33364;50.766;15.338;2022-11-15T10:50:44;31.17;;;20.30;;
47635;SDS011;33364;50.766;15.338;2022-11-15T10:53:26;37.65;;;23.60;;
47635;SDS011;33364;50.766;15.338;2022-11-15T10:56:06;37.90;;;23.55;;
47635;SDS011;33364;50.766;15.338;2022-11-15T10:58:39;37.10;;;23.05;;
47635;SDS011;33364;50.766;15.338;2022-11-15T11:01:11;39.90;;;25.50;;
47635;SDS011;33364;50.766;15.338;2022-11-15T11:03:45;33.53;;;21.58;;
47635;SDS011;33364;50.766;15.338;2022-11-15T11:06:24;47.08;;;29.10;;
47635;SDS011;33364;50.766;15.338;2022-11-15T11:08:54;41.08;;;26.13;;
47635;SDS011;33364;50.766;15.338;2022-11-15T11:11:43;36.13;;;21.67;;
47635;SDS011;33364;50.766;15.338;2022-11-15T11:14:11;37.58;;;22.17;;
47635;SDS011;33364;50.766;15.338;2022-11-15T11:16:43;33.97;;;21.77;;
47635;SDS011;33364;50.766;15.338;2022-11-15T11:19:17;32.35;;;19.13;;
47635;SDS011;33364;50.766;15.338;2022-11-15T11:21:57;54.53;;;32.85;;
47635;SDS011;33364;50.766;15.338;2022-11-15T11:24:32;53.22;;;33.08;;
47635;SDS011;33364;50.766;15.338;2022-11-15T11:35:34;47.33;;;28.48;;
47635;SDS011;33364;50.766;15.338;2022-11-15T11:38:18;84.28;;;45.90;;
47635;SDS011;33364;50.766;15.338;2022-11-15T11:44:18;81.53;;;42.63;;
47635;SDS011;33364;50.766;15.338;2022-11-15T11:50:10;121.47;;;59.50;;
47635;SDS011;33364;50.766;15.338;2022-11-15T11:55:20;50.05;;;30.20;;
47635;SDS011;33364;50.766;15.338;2022-11-15T11:58:03;45.78;;;27.30;;
47635;SDS011;33364;50.766;15.338;2022-11-15T12:01:04;58.42;;;36.40;;
47635;SDS011;33364;50.766;15.338;2022-11-15T12:03:47;55.83;;;31.48;;
47635;SDS011;33364;50.766;15.338;2022-11-15T12:06:26;63.80;;;35.13;;
47635;SDS011;33364;50.766;15.338;2022-11-15T12:11:55;50.75;;;30.25;;
47635;SDS011;33364;50.766;15.338;2022-11-15T12:14:34;56.05;;;32.33;;
47635;SDS011;33364;50.766;15.338;2022-11-15T12:19:34;68.60;;;40.13;;
47635;SDS011;33364;50.766;15.338;2022-11-15T12:22:05;60.90;;;34.85;;
47635;SDS011;33364;50.766;15.338;2022-11-15T12:30:00;46.88;;;28.88;;
47635;SDS011;33364;50.766;15.338;2022-11-15T12:32:30;48.97;;;28.95;;
47635;SDS011;33364;50.766;15.338;2022-11-15T12:34:59;76.75;;;48.72;;
47635;SDS011;33364;50.766;15.338;2022-11-15T12:45:34;59.38;;;35.17;;
47635;SDS011;33364;50.766;15.338;2022-11-15T12:48:44;65.30;;;36.58;;
47635;SDS011;33364;50.766;15.338;2022-11-15T12:50:59;55.60;;;32.47;;
47635;SDS011;33364;50.766;15.338;2022-11-15T12:53:26;55.47;;;31.73;;
47635;SDS011;33364;50.766;15.338;2022-11-15T13:14:52;70.65;;;37.28;;
47635;SDS011;33364;50.766;15.338;2022-11-15T13:22:41;61.97;;;33.47;;
47635;SDS011;33364;50.766;15.338;2022-11-15T13:31:01;58.55;;;31.95;;
47635;SDS011;33364;50.766;15.338;2022-11-15T13:33:39;60.17;;;33.05;;
47635;SDS011;33364;50.766;15.338;2022-11-15T13:36:06;63.45;;;33.47;;
47635;SDS011;33364;50.766;15.338;2022-11-15T13:38:39;63.45;;;34.55;;
47635;SDS011;33364;50.766;15.338;2022-11-15T13:41:22;62.58;;;35.65;;
47635;SDS011;33364;50.766;15.338;2022-11-15T13:43:50;65.30;;;35.40;;
47635;SDS011;33364;50.766;15.338;2022-11-15T13:48:45;67.00;;;37.17;;
47635;SDS011;33364;50.766;15.338;2022-11-15T13:54:44;55.83;;;32.00;;
47635;SDS011;33364;50.766;15.338;2022-11-15T13:57:12;67.00;;;34.10;;
47635;SDS011;33364;50.766;15.338;2022-11-15T14:02:25;67.78;;;38.33;;
47635;SDS011;33364;50.766;15.338;2022-11-15T14:05:05;67.68;;;36.17;;
47635;SDS011;33364;50.766;15.338;2022-11-15T14:07:53;62.35;;;33.72;;
47635;SDS011;33364;50.766;15.338;2022-11-15T14:10:31;70.68;;;36.60;;
47635;SDS011;33364;50.766;15.338;2022-11-15T14:12:59;49.42;;;26.83;;
47635;SDS011;33364;50.766;15.338;2022-11-15T14:18:02;64.28;;;35.60;;
47635;SDS011;33364;50.766;15.338;2022-11-15T14:20:38;68.82;;;36.30;;
47635;SDS011;33364;50.766;15.338;2022-11-15T14:23:24;73.43;;;38.35;;
47635;SDS011;33364;50.766;15.338;2022-11-15T14:25:53;77.68;;;37.67;;
47635;SDS011;33364;50.766;15.338;2022-11-15T14:30:49;65.68;;;33.72;;
47635;SDS011;33364;50.766;15.338;2022-11-15T14:33:23;74.15;;;39.40;;
47635;SDS011;33364;50.766;15.338;2022-11-15T14:35:51;89.60;;;42.97;;
47635;SDS011;33364;50.766;15.338;2022-11-15T14:38:18;85.32;;;41.13;;
47635;SDS011;33364;50.766;15.338;2022-11-15T14:40:43;86.07;;;41.45;;
47635;SDS011;33364;50.766;15.338;2022-11-15T14:43:10;82.25;;;40.33;;
47635;SDS011;33364;50.766;15.338;2022-11-15T14:45:36;79.13;;;40.30;;
47635;SDS011;33364;50.766;15.338;2022-11-15T14:48:03;82.50;;;38.35;;
47635;SDS011;33364;50.766;15.338;2022-11-15T14:50:28;75.20;;;37.85;;
47635;SDS011;33364;50.766;15.338;2022-11-15T14:52:54;92.15;;;45.75;;
47635;SDS011;33364;50.766;15.338;2022-11-15T14:55:26;78.28;;;38.83;;
47635;SDS011;33364;50.766;15.338;2022-11-15T14:57:54;97.13;;;47.85;;
47635;SDS011;33364;50.766;15.338;2022-11-15T15:00:20;97.80;;;48.75;;
47635;SDS011;33364;50.766;15.338;2022-11-15T15:02:47;83.00;;;43.08;;
47635;SDS011;33364;50.766;15.338;2022-11-15T15:05:25;88.75;;;43.83;;
47635;SDS011;33364;50.766;15.338;2022-11-15T15:07:52;77.90;;;40.03;;
47635;SDS011;33364;50.766;15.338;2022-11-15T15:10:20;89.15;;;43.47;;
47635;SDS011;33364;50.766;15.338;2022-11-15T15:12:46;81.50;;;40.30;;
47635;SDS011;33364;50.766;15.338;2022-11-15T15:15:16;92.03;;;43.88;;
47635;SDS011;33364;50.766;15.338;2022-11-15T15:17:50;80.05;;;40.22;;
47635;SDS011;33364;50.766;15.338;2022-11-15T15:20:15;79.85;;;38.00;;
47635;SDS011;33364;50.766;15.338;2022-11-15T15:22:41;85.13;;;41.10;;
47635;SDS011;33364;50.766;15.338;2022-11-15T15:25:52;85.40;;;44.85;;
47635;SDS011;33364;50.766;15.338;2022-11-15T15:27:58;91.65;;;44.33;;
47635;SDS011;33364;50.766;15.338;2022-11-15T15:30:24;88.57;;;41.28;;
47635;SDS011;33364;50.766;15.338;2022-11-15T15:32:51;84.22;;;40.65;;
47635;SDS011;33364;50.766;15.338;2022-11-15T15:35:17;77.93;;;38.75;;
47635;SDS011;33364;50.766;15.338;2022-11-15T15:37:44;74.22;;;37.13;;
47635;SDS011;33364;50.766;15.338;2022-11-15T15:40:13;77.80;;;38.17;;
47635;SDS011;33364;50.766;15.338;2022-11-15T15:42:41;83.38;;;43.85;;
47635;SDS011;33364;50.766;15.338;2022-11-15T15:45:07;95.22;;;49.90;;
47635;SDS011;33364;50.766;15.338;2022-11-15T15:47:34;97.13;;;47.78;;
47635;SDS011;33364;50.766;15.338;2022-11-15T15:49:59;78.20;;;41.17;;
47635;SDS011;33364;50.766;15.338;2022-11-15T15:52:25;81.75;;;41.13;;
47635;SDS011;33364;50.766;15.338;2022-11-15T15:54:50;70.85;;;35.92;;
47635;SDS011;33364;50.766;15.338;2022-11-15T15:57:16;64.95;;;30.77;;
47635;SDS011;33364;50.766;15.338;2022-11-15T15:59:42;61.08;;;30.17;;
47635;SDS011;33364;50.766;15.338;2022-11-15T16:02:11;53.38;;;28.20;;
47635;SDS011;33364;50.766;15.338;2022-11-15T16:04:37;51.72;;;27.13;;
47635;SDS011;33364;50.766;15.338;2022-11-15T16:07:03;49.65;;;27.40;;
47635;SDS011;33364;50.766;15.338;2022-11-15T16:09:29;57.20;;;29.73;;
47635;SDS011;33364;50.766;15.338;2022-11-15T16:12:14;44.92;;;25.48;;
47635;SDS011;33364;50.766;15.338;2022-11-15T16:14:41;41.50;;;22.83;;
47635;SDS011;33364;50.766;15.338;2022-11-15T16:17:09;44.25;;;22.38;;
47635;SDS011;33364;50.766;15.338;2022-11-15T16:19:43;41.10;;;22.52;;
47635;SDS011;33364;50.766;15.338;2022-11-15T16:22:09;43.17;;;24.88;;
47635;SDS011;33364;50.766;15.338;2022-11-15T16:24:34;46.08;;;25.67;;
47635;SDS011;33364;50.766;15.338;2022-11-15T16:27:00;42.08;;;23.05;;
47635;SDS011;33364;50.766;15.338;2022-11-15T16:29:25;44.42;;;24.33;;
47635;SDS011;33364;50.766;15.338;2022-11-15T16:31:51;43.35;;;22.20;;
47635;SDS011;33364;50.766;15.338;2022-11-15T16:34:17;43.40;;;23.17;;
47635;SDS011;33364;50.766;15.338;2022-11-15T16:36:43;39.63;;;21.60;;
47635;SDS011;33364;50.766;15.338;2022-11-15T16:39:11;39.35;;;20.60;;
47635;SDS011;33364;50.766;15.338;2022-11-15T16:41:43;36.50;;;20.30;;
47635;SDS011;33364;50.766;15.338;2022-11-15T16:44:14;33.45;;;19.70;;